Time,TemperatureF,DewpointF,PressureIn,WindDirection,WindDirectionDegrees,WindSpeedMPH,WindSpeedGustMPH,Humidity,HourlyPrecipIn,Conditions,Clouds,dailyrainin,SoftwareType,DateUTC
2013-06-16 00:00:00,59.5,29.6,29.60,West,270,0.0,0.0,32,0.00,,---,0.00,VWS V14.01,2013-06-16 06:00:00,
2013-06-16 00:10:00,59.0,30.0,29.60,West,270,0.0,0.0,33,0.00,,---,0.00,VWS V14.01,2013-06-16 06:10:00,
2013-06-16 00:20:00,57.7,29.5,29.61,West,270,0.0,0.0,34,0.00,,---,0.00,VWS V14.01,2013-06-16 06:20:00,
2013-06-16 00:30:00,56.0,28.8,29.63,West,270,0.0,0.0,35,0.00,,---,0.00,VWS V14.01,2013-06-16 06:30:00,
2013-06-16 00:40:00,57.3,29.2,29.63,West,270,0.0,0.0,34,0.00,,---,0.00,VWS V14.01,2013-06-16 06:40:00,
2013-06-16 00:50:00,57.0,28.9,29.63,West,270,0.0,0.0,34,0.00,,---,0.00,VWS V14.01,2013-06-16 06:50:00,
2013-06-16 01:00:00,55.8,28.6,29.63,West,270,0.0,0.0,35,0.00,,---,0.00,VWS V14.01,2013-06-16 07:00:00,
2013-06-16 01:10:00,55.7,29.2,29.64,West,270,1.0,4.0,36,0.00,,---,0.00,VWS V14.01,2013-06-16 07:10:00,
2013-06-16 01:20:00,55.3,29.5,29.65,West,270,0.0,2.0,37,0.00,,---,0.00,VWS V14.01,2013-06-16 07:20:00,
2013-06-16 01:30:00,55.1,29.3,29.65,West,270,2.0,11.0,37,0.00,,---,0.00,VWS V14.01,2013-06-16 07:30:00,
2013-06-16 01:40:00,56.1,29.5,29.64,WNW,292,1.0,11.0,36,0.00,,---,0.00,VWS V14.01,2013-06-16 07:40:00,
2013-06-16 01:50:00,54.8,29.0,29.65,WNW,292,0.0,0.0,37,0.00,,---,0.00,VWS V14.01,2013-06-16 07:50:00,
2013-06-16 02:00:00,54.2,29.2,29.65,WNW,292,0.0,3.0,38,0.00,,---,0.00,VWS V14.01,2013-06-16 08:00:00,
2013-06-16 02:10:00,54.2,29.2,29.63,WNW,292,0.0,0.0,38,0.00,,---,0.00,VWS V14.01,2013-06-16 08:10:00,
2013-06-16 02:20:00,52.6,29.6,29.65,WNW,292,0.0,5.0,41,0.00,,---,0.00,VWS V14.01,2013-06-16 08:20:00,
2013-06-16 02:30:00,53.6,29.3,29.63,WNW,292,0.0,0.0,39,0.00,,---,0.00,VWS V14.01,2013-06-16 08:30:00,
2013-06-16 02:40:00,53.5,29.2,29.63,WNW,292,0.0,0.0,39,0.00,,---,0.00,VWS V14.01,2013-06-16 08:40:00,
2013-06-16 02:50:00,54.0,29.6,29.63,WNW,292,1.0,5.0,39,0.00,,---,0.00,VWS V14.01,2013-06-16 08:50:00,
2013-06-16 03:00:00,54.1,29.7,29.63,WNW,292,3.0,10.0,39,0.00,,---,0.00,VWS V14.01,2013-06-16 09:00:00,
2013-06-16 03:10:00,53.5,29.2,29.67,WNW,292,0.0,0.0,39,0.00,,---,0.00,VWS V14.01,2013-06-16 09:10:00,
2013-06-16 03:20:00,54.4,29.3,29.66,WNW,292,2.0,5.0,38,0.00,,---,0.00,VWS V14.01,2013-06-16 09:20:00,
2013-06-16 03:30:00,52.4,29.4,29.64,WNW,292,1.0,4.0,41,0.00,,---,0.00,VWS V14.01,2013-06-16 09:30:00,
2013-06-16 03:40:00,51.8,28.9,29.66,WNW,292,1.0,10.0,41,0.00,,---,0.00,VWS V14.01,2013-06-16 09:40:00,
2013-06-16 03:50:00,52.2,29.2,29.67,WNW,292,1.0,10.0,41,0.00,,---,0.00,VWS V14.01,2013-06-16 09:50:00,
2013-06-16 04:00:00,51.8,29.5,29.67,WNW,292,1.0,7.0,42,0.00,,---,0.00,VWS V14.01,2013-06-16 10:00:00,
2013-06-16 04:10:00,51.8,29.5,29.65,WNW,292,0.0,0.0,42,0.00,,---,0.00,VWS V14.01,2013-06-16 10:10:00,
2013-06-16 04:20:00,52.3,29.3,29.64,WNW,292,0.0,0.0,41,0.00,,---,0.00,VWS V14.01,2013-06-16 10:20:00,
2013-06-16 04:30:00,53.0,29.3,29.64,WNW,292,3.0,13.0,40,0.00,,---,0.00,VWS V14.01,2013-06-16 10:30:00,
2013-06-16 04:40:00,51.2,29.5,29.65,WNW,292,1.0,8.0,43,0.00,,---,0.00,VWS V14.01,2013-06-16 10:40:00,
2013-06-16 04:50:00,51.1,29.4,29.67,WNW,292,0.0,0.0,43,0.00,,---,0.00,VWS V14.01,2013-06-16 10:50:00,
2013-06-16 05:00:00,51.6,29.3,29.66,WNW,292,3.0,10.0,42,0.00,,---,0.00,VWS V14.01,2013-06-16 11:00:00,
2013-06-16 05:10:00,50.8,29.1,29.68,NW,315,1.0,9.0,43,0.00,,---,0.00,VWS V14.01,2013-06-16 11:10:00,
2013-06-16 05:20:00,50.5,28.9,29.68,NW,315,0.0,0.0,43,0.00,,---,0.00,VWS V14.01,2013-06-16 11:20:00,
2013-06-16 05:30:00,50.8,29.1,29.69,NW,315,1.0,4.0,43,0.00,,---,0.00,VWS V14.01,2013-06-16 11:30:00,
2013-06-16 05:40:00,48.0,28.8,29.71,WNW,292,0.0,2.0,47,0.00,,---,0.00,VWS V14.01,2013-06-16 11:40:00,
2013-06-16 05:50:00,47.6,28.9,29.74,WNW,292,0.0,0.0,48,0.00,,---,0.00,VWS V14.01,2013-06-16 11:50:00,
2013-06-16 06:00:00,47.6,28.9,29.72,WNW,292,0.0,0.0,48,0.00,,---,0.00,VWS V14.01,2013-06-16 12:00:00,
2013-06-16 06:10:00,47.2,29.0,29.77,WNW,292,0.0,0.0,49,0.00,,---,0.00,VWS V14.01,2013-06-16 12:10:00,
2013-06-16 06:20:00,48.0,29.8,29.76,WNW,292,0.0,0.0,49,0.00,,---,0.00,VWS V14.01,2013-06-16 12:20:00,
2013-06-16 06:30:00,48.6,30.8,29.76,WNW,292,0.0,0.0,50,0.00,,---,0.00,VWS V14.01,2013-06-16 12:30:00,
2013-06-16 06:40:00,49.6,30.2,29.76,WNW,292,0.0,0.0,47,0.00,,---,0.00,VWS V14.01,2013-06-16 12:40:00,
2013-06-16 06:50:00,51.1,31.1,29.75,WNW,292,0.0,0.0,46,0.00,,---,0.00,VWS V14.01,2013-06-16 12:50:00,
2013-06-16 07:00:00,52.3,31.0,29.73,NW,315,0.0,3.0,44,0.00,,---,0.00,VWS V14.01,2013-06-16 13:00:00,
2013-06-16 07:10:00,52.7,31.4,29.75,NW,315,3.0,7.0,44,0.00,,---,0.00,VWS V14.01,2013-06-16 13:10:00,
2013-06-16 07:30:00,54.8,31.6,29.73,North,11,7.0,11.0,41,0.00,,---,0.00,VWS V14.01,2013-06-16 13:30:00,
2013-06-16 07:40:00,55.6,32.3,29.71,North,5,9.0,12.0,41,0.00,,---,0.00,VWS V14.01,2013-06-16 13:40:00,
2013-06-16 07:42:00,55.6,32.3,29.71,North,5,9.0,12.0,41,0.00,,---,0.00,VWS V14.01,2013-06-16 13:42:00,
2013-06-16 07:50:00,57.1,31.8,29.71,North,360,6.0,13.0,38,0.00,,---,0.00,VWS V14.01,2013-06-16 13:50:00,
2013-06-16 07:52:00,57.1,31.8,29.71,North,360,6.0,13.0,38,0.00,,---,0.00,VWS V14.01,2013-06-16 13:52:00,
2013-06-16 08:00:00,58.4,32.2,29.69,NNE,21,3.0,12.0,37,0.00,,---,0.00,VWS V14.01,2013-06-16 14:00:00,
2013-06-16 08:02:00,58.4,32.2,29.69,NNE,21,3.0,12.0,37,0.00,,---,0.00,VWS V14.01,2013-06-16 14:02:00,
2013-06-16 08:10:00,59.2,32.3,29.71,NNE,24,0.0,8.0,36,0.00,,---,0.00,VWS V14.01,2013-06-16 14:10:00,
2013-06-16 08:12:00,59.2,32.3,29.71,NNE,24,0.0,8.0,36,0.00,,---,0.00,VWS V14.01,2013-06-16 14:12:00,
2013-06-16 08:20:00,60.3,31.8,29.71,NNE,25,0.0,5.0,34,0.00,,---,0.00,VWS V14.01,2013-06-16 14:20:00,
2013-06-16 08:22:00,60.3,31.8,29.71,NNE,25,0.0,5.0,34,0.00,,---,0.00,VWS V14.01,2013-06-16 14:22:00,
2013-06-16 08:30:00,61.1,31.8,29.69,NE,51,0.0,0.0,33,0.00,,---,0.00,VWS V14.01,2013-06-16 14:30:00,
2013-06-16 08:32:00,61.1,31.8,29.69,NE,51,0.0,0.0,33,0.00,,---,0.00,VWS V14.01,2013-06-16 14:32:00,
2013-06-16 08:40:00,62.2,32.0,29.69,East,82,0.0,0.0,32,0.00,,---,0.00,VWS V14.01,2013-06-16 14:40:00,
2013-06-16 08:42:00,62.2,32.0,29.69,East,82,0.0,0.0,32,0.00,,---,0.00,VWS V14.01,2013-06-16 14:42:00,
2013-06-16 08:50:00,62.8,33.3,29.68,East,82,4.0,7.0,33,0.00,,---,0.00,VWS V14.01,2013-06-16 14:50:00,
2013-06-16 08:52:00,62.8,33.3,29.68,East,82,4.0,7.0,33,0.00,,---,0.00,VWS V14.01,2013-06-16 14:52:00,
2013-06-16 09:00:00,62.5,33.0,29.68,ESE,121,4.0,6.0,33,0.00,,---,0.00,VWS V14.01,2013-06-16 15:00:00,
2013-06-16 09:02:00,62.5,33.0,29.68,ESE,121,4.0,6.0,33,0.00,,---,0.00,VWS V14.01,2013-06-16 15:02:00,
2013-06-16 09:10:00,63.1,33.6,29.71,ESE,121,4.0,8.0,33,0.00,,---,0.00,VWS V14.01,2013-06-16 15:10:00,
2013-06-16 09:12:00,63.1,33.6,29.71,ESE,121,4.0,8.0,33,0.00,,---,0.00,VWS V14.01,2013-06-16 15:12:00,
2013-06-16 09:20:00,64.0,33.6,29.71,SSE,149,4.0,7.0,32,0.00,,---,0.00,VWS V14.01,2013-06-16 15:20:00,
2013-06-16 09:22:00,64.0,33.6,29.71,SSE,149,4.0,7.0,32,0.00,,---,0.00,VWS V14.01,2013-06-16 15:22:00,
2013-06-16 09:30:00,64.5,34.8,29.69,SSE,148,0.0,6.0,33,0.00,,---,0.00,VWS V14.01,2013-06-16 15:30:00,
2013-06-16 09:32:00,64.5,34.8,29.69,SSE,148,0.0,6.0,33,0.00,,---,0.00,VWS V14.01,2013-06-16 15:32:00,
2013-06-16 09:40:00,64.1,33.7,29.70,SSE,148,0.0,7.0,32,0.00,,---,0.00,VWS V14.01,2013-06-16 15:40:00,
2013-06-16 09:42:00,64.1,33.7,29.70,SSE,148,0.0,7.0,32,0.00,,---,0.00,VWS V14.01,2013-06-16 15:42:00,
2013-06-16 09:50:00,63.7,34.8,29.70,SSE,151,0.0,5.0,34,0.00,,---,0.00,VWS V14.01,2013-06-16 15:50:00,
2013-06-16 09:52:00,63.7,34.8,29.70,SSE,151,0.0,5.0,34,0.00,,---,0.00,VWS V14.01,2013-06-16 15:52:00,
2013-06-16 10:00:00,64.1,35.2,29.70,SSE,151,0.0,5.0,34,0.00,,---,0.00,VWS V14.01,2013-06-16 16:00:00,
2013-06-16 10:02:00,64.1,35.2,29.70,SSE,151,0.0,5.0,34,0.00,,---,0.00,VWS V14.01,2013-06-16 16:02:00,
2013-06-16 10:10:00,65.1,35.3,29.68,SSE,147,4.0,8.0,33,0.00,,---,0.00,VWS V14.01,2013-06-16 16:10:00,
2013-06-16 10:12:00,65.1,35.3,29.68,SSE,147,4.0,8.0,33,0.00,,---,0.00,VWS V14.01,2013-06-16 16:12:00,
2013-06-16 10:20:00,66.0,34.5,29.67,SE,146,0.0,8.0,31,0.00,,---,0.00,VWS V14.01,2013-06-16 16:20:00,
2013-06-16 10:22:00,66.0,34.5,29.67,SE,146,0.0,8.0,31,0.00,,---,0.00,VWS V14.01,2013-06-16 16:22:00,
2013-06-16 10:30:00,66.4,35.7,29.67,SSE,147,0.0,5.0,32,0.00,,---,0.00,VWS V14.01,2013-06-16 16:30:00,
2013-06-16 10:32:00,66.4,35.7,29.67,SSE,147,0.0,5.0,32,0.00,,---,0.00,VWS V14.01,2013-06-16 16:32:00,
2013-06-16 10:40:00,67.0,34.6,29.66,SE,141,0.0,0.0,30,0.00,,---,0.00,VWS V14.01,2013-06-16 16:40:00,
2013-06-16 10:42:00,67.0,34.6,29.66,SE,141,0.0,0.0,30,0.00,,---,0.00,VWS V14.01,2013-06-16 16:42:00,
2013-06-16 10:50:00,70.7,36.0,29.63,SE,142,0.0,4.0,28,0.00,,---,0.00,VWS V14.01,2013-06-16 16:50:00,
2013-06-16 10:52:00,70.7,36.0,29.63,SE,142,0.0,4.0,28,0.00,,---,0.00,VWS V14.01,2013-06-16 16:52:00,
2013-06-16 11:00:00,71.0,34.4,29.62,WNW,298,5.0,14.0,26,0.00,,---,0.00,VWS V14.01,2013-06-16 17:00:00,
2013-06-16 11:02:00,71.0,34.4,29.62,WNW,298,5.0,14.0,26,0.00,,---,0.00,VWS V14.01,2013-06-16 17:02:00,
2013-06-16 11:10:00,68.9,35.4,29.66,SW,236,9.0,23.0,29,0.00,,---,0.00,VWS V14.01,2013-06-16 17:10:00,
2013-06-16 11:12:00,68.9,35.4,29.66,SW,236,9.0,23.0,29,0.00,,---,0.00,VWS V14.01,2013-06-16 17:12:00,
2013-06-16 11:20:00,67.2,33.0,29.67,West,278,17.0,33.0,28,0.00,,---,0.00,VWS V14.01,2013-06-16 17:20:00,
2013-06-16 11:22:00,67.2,33.0,29.67,West,278,17.0,33.0,28,0.00,,---,0.00,VWS V14.01,2013-06-16 17:22:00,
2013-06-16 11:30:00,66.2,34.7,29.68,West,279,21.0,28.0,31,0.00,,---,0.00,VWS V14.01,2013-06-16 17:30:00,
2013-06-16 11:32:00,66.2,34.7,29.68,West,279,21.0,28.0,31,0.00,,---,0.00,VWS V14.01,2013-06-16 17:32:00,
2013-06-16 11:40:00,67.1,34.7,29.68,West,269,19.0,27.0,30,0.00,,---,0.00,VWS V14.01,2013-06-16 17:40:00,
2013-06-16 11:42:00,67.1,34.7,29.68,West,269,19.0,27.0,30,0.00,,---,0.00,VWS V14.01,2013-06-16 17:42:00,
2013-06-16 11:50:00,68.0,33.7,29.67,West,275,18.0,29.0,28,0.00,,---,0.00,VWS V14.01,2013-06-16 17:50:00,
2013-06-16 11:52:00,68.0,33.7,29.67,West,275,18.0,29.0,28,0.00,,---,0.00,VWS V14.01,2013-06-16 17:52:00,
2013-06-16 12:00:00,69.2,33.8,29.67,West,273,9.0,20.0,27,0.00,,---,0.00,VWS V14.01,2013-06-16 18:00:00,
2013-06-16 12:02:00,69.2,33.8,29.67,West,273,9.0,20.0,27,0.00,,---,0.00,VWS V14.01,2013-06-16 18:02:00,
2013-06-16 12:10:00,71.0,34.4,29.67,NW,313,10.0,21.0,26,0.00,,---,0.00,VWS V14.01,2013-06-16 18:10:00,
2013-06-16 12:12:00,71.0,34.4,29.67,NW,313,10.0,21.0,26,0.00,,---,0.00,VWS V14.01,2013-06-16 18:12:00,
2013-06-16 12:20:00,70.3,36.6,29.67,NNW,346,24.0,29.0,29,0.00,,---,0.00,VWS V14.01,2013-06-16 18:20:00,
2013-06-16 12:22:00,70.3,36.6,29.67,NNW,346,24.0,29.0,29,0.00,,---,0.00,VWS V14.01,2013-06-16 18:22:00,
2013-06-16 12:30:00,68.8,36.1,29.68,North,350,17.0,35.0,30,0.00,,---,0.00,VWS V14.01,2013-06-16 18:30:00,
2013-06-16 12:32:00,68.8,36.1,29.68,North,350,17.0,35.0,30,0.00,,---,0.00,VWS V14.01,2013-06-16 18:32:00,
2013-06-16 12:40:00,68.9,37.0,29.66,North,360,21.0,27.0,31,0.00,,---,0.00,VWS V14.01,2013-06-16 18:40:00,
2013-06-16 12:42:00,68.9,37.0,29.66,North,360,21.0,27.0,31,0.00,,---,0.00,VWS V14.01,2013-06-16 18:42:00,
2013-06-16 12:50:00,70.4,37.5,29.65,North,355,13.0,26.0,30,0.00,,---,0.00,VWS V14.01,2013-06-16 18:50:00,
2013-06-16 12:52:00,70.4,37.5,29.65,North,355,13.0,26.0,30,0.00,,---,0.00,VWS V14.01,2013-06-16 18:52:00,
2013-06-16 13:00:00,70.4,38.3,29.64,North,5,20.0,30.0,31,0.00,,---,0.00,VWS V14.01,2013-06-16 19:00:00,
2013-06-16 13:02:00,70.4,38.3,29.64,North,5,20.0,30.0,31,0.00,,---,0.00,VWS V14.01,2013-06-16 19:02:00,
2013-06-16 13:10:00,68.8,37.8,29.67,North,349,25.0,27.0,32,0.00,,---,0.00,VWS V14.01,2013-06-16 19:10:00,
2013-06-16 13:12:00,68.8,37.8,29.67,North,349,25.0,27.0,32,0.00,,---,0.00,VWS V14.01,2013-06-16 19:12:00,
2013-06-16 13:20:00,69.1,38.0,29.66,NNW,342,21.0,33.0,32,0.00,,---,0.00,VWS V14.01,2013-06-16 19:20:00,
2013-06-16 13:22:00,69.1,38.0,29.66,NNW,342,21.0,33.0,32,0.00,,---,0.00,VWS V14.01,2013-06-16 19:22:00,
2013-06-16 13:30:00,69.4,38.3,29.67,NNW,347,20.0,32.0,32,0.00,,---,0.00,VWS V14.01,2013-06-16 19:30:00,
2013-06-16 13:32:00,69.4,38.3,29.67,NNW,347,20.0,32.0,32,0.00,,---,0.00,VWS V14.01,2013-06-16 19:32:00,
2013-06-16 13:40:00,69.4,37.5,29.65,North,9,21.0,33.0,31,0.00,,---,0.00,VWS V14.01,2013-06-16 19:40:00,
2013-06-16 13:42:00,69.4,37.5,29.65,North,9,21.0,33.0,31,0.00,,---,0.00,VWS V14.01,2013-06-16 19:42:00,
2013-06-16 13:50:00,70.4,37.5,29.64,North,349,24.0,32.0,30,0.00,,---,0.00,VWS V14.01,2013-06-16 19:50:00,
2013-06-16 13:52:00,70.4,37.5,29.64,North,349,24.0,32.0,30,0.00,,---,0.00,VWS V14.01,2013-06-16 19:52:00,
2013-06-16 14:00:00,68.7,36.9,29.66,North,360,23.0,29.0,31,0.00,,---,0.00,VWS V14.01,2013-06-16 20:00:00,
2013-06-16 14:02:00,68.7,36.9,29.66,North,360,23.0,29.0,31,0.00,,---,0.00,VWS V14.01,2013-06-16 20:02:00,
2013-06-16 14:10:00,68.0,37.1,29.67,NNW,338,10.0,27.0,32,0.00,,---,0.00,VWS V14.01,2013-06-16 20:10:00,
2013-06-16 14:12:00,68.0,37.1,29.67,NNW,338,10.0,27.0,32,0.00,,---,0.00,VWS V14.01,2013-06-16 20:12:00,
2013-06-16 14:20:00,67.3,37.2,29.68,NW,322,19.0,25.0,33,0.00,,---,0.00,VWS V14.01,2013-06-16 20:20:00,
2013-06-16 14:22:00,67.3,37.2,29.68,NW,322,19.0,25.0,33,0.00,,---,0.00,VWS V14.01,2013-06-16 20:22:00,
2013-06-16 14:30:00,66.7,34.3,29.73,North,351,9.0,26.0,30,0.00,,---,0.00,VWS V14.01,2013-06-16 20:30:00,
2013-06-16 14:32:00,66.7,34.3,29.73,North,351,9.0,26.0,30,0.00,,---,0.00,VWS V14.01,2013-06-16 20:32:00,
2013-06-16 14:40:00,61.8,36.6,29.76,NW,320,26.0,35.0,39,0.00,,---,0.00,VWS V14.01,2013-06-16 20:40:00,
2013-06-16 14:42:00,61.8,36.6,29.76,NW,320,26.0,35.0,39,0.00,,---,0.00,VWS V14.01,2013-06-16 20:42:00,
2013-06-16 14:50:00,59.8,36.1,29.77,NW,320,24.0,35.0,41,0.00,,---,0.00,VWS V14.01,2013-06-16 20:50:00,
2013-06-16 14:52:00,59.8,36.1,29.77,NW,320,24.0,35.0,41,0.00,,---,0.00,VWS V14.01,2013-06-16 20:52:00,
2013-06-16 15:00:00,60.5,34.8,29.77,NW,313,24.0,33.0,38,0.00,,---,0.00,VWS V14.01,2013-06-16 21:00:00,
2013-06-16 15:02:00,60.5,34.8,29.77,NW,313,24.0,33.0,38,0.00,,---,0.00,VWS V14.01,2013-06-16 21:02:00,
2013-06-16 15:10:00,60.5,36.1,29.80,NW,318,17.0,27.0,40,0.00,,---,0.00,VWS V14.01,2013-06-16 21:10:00,
2013-06-16 15:12:00,60.5,36.1,29.80,NW,318,17.0,27.0,40,0.00,,---,0.00,VWS V14.01,2013-06-16 21:12:00,
2013-06-16 15:20:00,60.7,37.5,29.81,NNW,338,13.0,21.0,42,0.00,,---,0.00,VWS V14.01,2013-06-16 21:20:00,
2013-06-16 15:30:00,60.2,38.2,29.81,North,0,10.0,15.0,44,0.00,,---,0.00,VWS V14.01,2013-06-16 21:30:00,
2013-06-16 15:40:00,61.1,38.5,29.82,WNW,292,11.0,19.0,43,0.00,,---,0.00,VWS V14.01,2013-06-16 21:40:00,
2013-06-16 15:50:00,57.3,40.8,29.83,NW,315,17.0,25.0,54,0.00,,---,0.00,VWS V14.01,2013-06-16 21:50:00,
2013-06-16 16:00:00,57.2,40.7,29.83,NNW,338,14.0,20.0,54,0.00,,---,0.00,VWS V14.01,2013-06-16 22:00:00,
2013-06-16 16:10:00,57.6,43.0,29.84,NW,315,14.0,20.0,58,0.00,,---,0.00,VWS V14.01,2013-06-16 22:10:00,
2013-06-16 16:20:00,57.5,43.3,29.82,NNW,338,18.0,25.0,59,0.00,,---,0.00,VWS V14.01,2013-06-16 22:20:00,
2013-06-16 16:30:00,57.6,41.6,29.81,NNW,338,16.0,23.0,55,0.00,,---,0.00,VWS V14.01,2013-06-16 22:30:00,
2013-06-16 16:40:00,57.7,40.7,29.80,NNW,338,15.0,20.0,53,0.00,,---,0.00,VWS V14.01,2013-06-16 22:40:00,
2013-06-16 16:50:00,58.9,41.3,29.81,NNW,338,12.0,18.0,52,0.00,,---,0.00,VWS V14.01,2013-06-16 22:50:00,
2013-06-16 17:00:00,59.0,39.9,29.81,NW,315,8.0,16.0,49,0.00,,---,0.00,VWS V14.01,2013-06-16 23:00:00,
2013-06-16 17:10:00,60.8,37.6,29.82,NW,315,10.0,18.0,42,0.00,,---,0.00,VWS V14.01,2013-06-16 23:10:00,
2013-06-16 17:20:00,59.2,41.1,29.83,WNW,292,13.0,19.0,51,0.00,,---,0.00,VWS V14.01,2013-06-16 23:20:00,
2013-06-16 17:30:00,58.7,41.1,29.84,NNW,338,12.0,17.0,52,0.00,,---,0.00,VWS V14.01,2013-06-16 23:30:00,
2013-06-16 17:40:00,59.0,41.4,29.85,North,0,12.0,17.0,52,0.00,,---,0.00,VWS V14.01,2013-06-16 23:40:00,
2013-06-16 17:50:00,58.7,39.1,29.86,North,0,19.0,40.0,48,0.00,,---,0.00,VWS V14.01,2013-06-16 23:50:00,
2013-06-16 18:00:00,57.8,39.3,29.85,North,0,26.0,40.0,50,0.00,,---,0.00,VWS V14.01,2013-06-17 00:00:00,
2013-06-16 18:10:00,57.2,40.2,29.83,North,0,28.0,41.0,53,0.00,,---,0.00,VWS V14.01,2013-06-17 00:10:00,
2013-06-16 18:20:00,56.6,40.2,29.85,NNW,338,24.0,36.0,54,0.00,,---,0.00,VWS V14.01,2013-06-17 00:20:00,
2013-06-16 18:30:00,56.2,40.3,29.84,NNW,338,24.0,34.0,55,0.00,,---,0.00,VWS V14.01,2013-06-17 00:30:00,
2013-06-16 18:40:00,57.2,38.8,29.85,NNW,338,22.0,31.0,50,0.00,,---,0.00,VWS V14.01,2013-06-17 00:40:00,
2013-06-16 18:50:00,57.5,39.0,29.84,NNW,338,19.0,33.0,50,0.00,,---,0.00,VWS V14.01,2013-06-17 00:50:00,
2013-06-16 19:00:00,57.4,38.9,29.83,NNW,338,18.0,28.0,50,0.00,,---,0.00,VWS V14.01,2013-06-17 01:00:00,
2013-06-16 19:10:00,56.9,39.0,29.80,North,0,18.0,24.0,51,0.00,,---,0.00,VWS V14.01,2013-06-17 01:10:00,
2013-06-16 19:20:00,57.1,38.7,29.80,North,0,16.0,25.0,50,0.00,,---,0.00,VWS V14.01,2013-06-17 01:20:00,
2013-06-16 19:30:00,56.7,38.8,29.80,North,0,12.0,23.0,51,0.00,,---,0.00,VWS V14.01,2013-06-17 01:30:00,
2013-06-16 19:40:00,56.0,38.6,29.79,NNW,338,14.0,22.0,52,0.00,,---,0.00,VWS V14.01,2013-06-17 01:40:00,
2013-06-16 19:50:00,55.2,38.4,29.81,North,0,12.0,18.0,53,0.00,,---,0.00,VWS V14.01,2013-06-17 01:50:00,
2013-06-16 20:00:00,54.6,38.8,29.81,NW,315,9.0,14.0,55,0.00,,---,0.00,VWS V14.01,2013-06-17 02:00:00,
2013-06-16 20:10:00,54.2,38.4,29.78,NNW,338,8.0,14.0,55,0.00,,---,0.00,VWS V14.01,2013-06-17 02:10:00,
2013-06-16 20:20:00,53.9,38.6,29.78,NNW,338,3.0,7.0,56,0.00,,---,0.00,VWS V14.01,2013-06-17 02:20:00,
2013-06-16 20:40:00,54.4,38.1,29.76,NNW,327,4.0,7.0,54,0.00,,---,0.00,VWS V14.01,2013-06-17 02:40:00,
2013-06-16 20:42:00,54.4,38.1,29.76,NNW,327,4.0,7.0,54,0.00,,---,0.00,VWS V14.01,2013-06-17 02:42:00,
2013-06-16 20:50:00,53.1,38.3,29.79,NNW,327,7.0,10.0,57,0.00,,---,0.00,VWS V14.01,2013-06-17 02:50:00,
2013-06-16 20:52:00,53.1,38.3,29.79,NNW,327,7.0,10.0,57,0.00,,---,0.00,VWS V14.01,2013-06-17 02:52:00,
2013-06-16 21:00:00,51.9,38.0,29.80,NNW,329,3.0,11.0,59,0.00,,---,0.00,VWS V14.01,2013-06-17 03:00:00,
2013-06-16 21:02:00,51.9,38.0,29.80,NNW,329,3.0,11.0,59,0.00,,---,0.00,VWS V14.01,2013-06-17 03:02:00,
2013-06-16 21:10:00,52.1,38.2,29.79,NNW,329,2.0,7.0,59,0.00,,---,0.00,VWS V14.01,2013-06-17 03:10:00,
2013-06-16 21:12:00,52.1,38.2,29.79,NNW,329,2.0,7.0,59,0.00,,---,0.00,VWS V14.01,2013-06-17 03:12:00,
2013-06-16 21:20:00,51.7,37.8,29.80,NNW,329,0.0,5.0,59,0.00,,---,0.00,VWS V14.01,2013-06-17 03:20:00,
2013-06-16 21:22:00,51.7,37.8,29.80,NNW,329,0.0,5.0,59,0.00,,---,0.00,VWS V14.01,2013-06-17 03:22:00,
2013-06-16 21:30:00,51.2,38.2,29.82,NNW,329,0.0,0.0,61,0.00,,---,0.00,VWS V14.01,2013-06-17 03:30:00,
2013-06-16 21:32:00,51.2,38.2,29.82,NNW,329,0.0,0.0,61,0.00,,---,0.00,VWS V14.01,2013-06-17 03:32:00,
2013-06-16 21:40:00,52.0,38.1,29.79,NE,34,7.0,12.0,59,0.00,,---,0.00,VWS V14.01,2013-06-17 03:40:00,
2013-06-16 21:42:00,52.0,38.1,29.79,NE,34,7.0,12.0,59,0.00,,---,0.00,VWS V14.01,2013-06-17 03:42:00,
2013-06-16 21:50:00,51.8,40.0,29.78,North,360,14.0,17.0,64,0.00,,---,0.00,VWS V14.01,2013-06-17 03:50:00,
2013-06-16 21:52:00,51.8,40.0,29.78,North,360,14.0,17.0,64,0.00,,---,0.00,VWS V14.01,2013-06-17 03:52:00,
2013-06-16 22:00:00,51.2,39.8,29.81,NNW,341,7.0,16.0,65,0.00,,---,0.00,VWS V14.01,2013-06-17 04:00:00,
2013-06-16 22:02:00,51.2,39.8,29.81,NNW,341,7.0,16.0,65,0.00,,---,0.00,VWS V14.01,2013-06-17 04:02:00,
2013-06-16 22:10:00,51.3,40.0,29.75,NNW,333,19.0,20.0,65,0.00,,---,0.00,VWS V14.01,2013-06-17 04:10:00,
2013-06-16 22:12:00,51.3,40.0,29.75,NNW,333,19.0,20.0,65,0.00,,---,0.00,VWS V14.01,2013-06-17 04:12:00,
2013-06-16 22:20:00,51.8,39.6,29.75,NNW,344,15.0,21.0,63,0.00,,---,0.00,VWS V14.01,2013-06-17 04:20:00,
2013-06-16 22:22:00,51.8,39.6,29.75,NNW,344,15.0,21.0,63,0.00,,---,0.00,VWS V14.01,2013-06-17 04:22:00,
2013-06-16 22:30:00,51.8,39.2,29.74,NNW,341,3.0,16.0,62,0.00,,---,0.00,VWS V14.01,2013-06-17 04:30:00,
2013-06-16 22:32:00,51.8,39.2,29.74,NNW,341,3.0,16.0,62,0.00,,---,0.00,VWS V14.01,2013-06-17 04:32:00,
2013-06-16 22:40:00,51.9,38.5,29.73,West,276,9.0,12.0,60,0.00,,---,0.00,VWS V14.01,2013-06-17 04:40:00,
2013-06-16 22:42:00,51.9,38.5,29.73,West,276,9.0,12.0,60,0.00,,---,0.00,VWS V14.01,2013-06-17 04:42:00,
2013-06-16 22:50:00,54.3,38.0,29.72,West,276,0.0,9.0,54,0.00,,---,0.00,VWS V14.01,2013-06-17 04:50:00,
2013-06-16 22:52:00,54.3,38.0,29.72,West,276,0.0,9.0,54,0.00,,---,0.00,VWS V14.01,2013-06-17 04:52:00,
2013-06-16 23:00:00,54.8,38.0,29.69,West,276,0.0,0.0,53,0.00,,---,0.00,VWS V14.01,2013-06-17 05:00:00,
2013-06-16 23:02:00,54.8,38.0,29.69,West,276,0.0,0.0,53,0.00,,---,0.00,VWS V14.01,2013-06-17 05:02:00,
2013-06-16 23:10:00,52.2,37.0,29.75,West,281,4.0,9.0,56,0.00,,---,0.00,VWS V14.01,2013-06-17 05:10:00,
2013-06-16 23:12:00,52.2,37.0,29.75,West,281,4.0,9.0,56,0.00,,---,0.00,VWS V14.01,2013-06-17 05:12:00,
2013-06-16 23:20:00,52.6,38.3,29.75,North,5,0.0,11.0,58,0.00,,---,0.00,VWS V14.01,2013-06-17 05:20:00,
2013-06-16 23:22:00,52.6,38.3,29.75,North,5,0.0,11.0,58,0.00,,---,0.00,VWS V14.01,2013-06-17 05:22:00,
2013-06-16 23:30:00,52.2,38.3,29.77,North,360,0.0,0.0,59,0.00,,---,0.00,VWS V14.01,2013-06-17 05:30:00,
2013-06-16 23:32:00,52.2,38.3,29.77,North,360,0.0,0.0,59,0.00,,---,0.00,VWS V14.01,2013-06-17 05:32:00,
2013-06-16 23:40:00,51.4,38.8,29.76,North,5,3.0,9.0,62,0.00,,---,0.00,VWS V14.01,2013-06-17 05:40:00,
2013-06-16 23:42:00,51.4,38.8,29.76,North,5,3.0,9.0,62,0.00,,---,0.00,VWS V14.01,2013-06-17 05:42:00,
2013-06-16 23:50:00,50.4,39.1,29.76,NNW,338,0.0,11.0,65,0.00,,---,0.00,VWS V14.01,2013-06-17 05:50:00,
2013-06-16 23:52:00,50.4,39.1,29.76,NNW,338,0.0,11.0,65,0.00,,---,0.00,VWS V14.01,2013-06-17 05:52:00,